Time;durP1;ratioP1;P1;durP2;ratioP2;P2;SDS_P1;SDS_P2;PMS_P1;PMS_P2;Temp;Humidity;BMP_temperature;BMP_pressure;BME280_temperature;BME280_humidity;BME280_pressure;Samples;Min_cycle;Max_cycle;Signal;HPM_P1;HPM_P2
2022/08/02 00:01:31;;;;;;;4.90;2.63;;;14.10;99.90;;;;;;5073417;28;20043;-83
2022/08/02 00:03:57;;;;;;;7.00;2.55;;;13.90;99.90;;;;;;5076864;28;20128;-82
2022/08/02 00:06:23;;;;;;;5.10;2.77;;;13.90;99.90;;;;;;5076544;28;20052;-82
2022/08/02 00:08:48;;;;;;;7.93;2.80;;;13.80;99.90;;;;;;5076899;28;20083;-80
2022/08/02 00:11:14;;;;;;;7.10;2.50;;;13.80;99.90;;;;;;5077051;28;20504;-82
2022/08/02 00:13:40;;;;;;;5.40;2.47;;;13.80;99.90;;;;;;5076340;28;20041;-81
2022/08/02 00:16:05;;;;;;;5.70;2.53;;;14.00;99.90;;;;;;5076734;28;20045;-82
2022/08/02 00:18:31;;;;;;;7.07;2.80;;;13.80;99.90;;;;;;5076570;28;20105;-81
2022/08/02 00:20:57;;;;;;;5.75;2.58;;;14.00;99.90;;;;;;5076620;28;20498;-78
2022/08/02 00:23:22;;;;;;;5.77;2.47;;;13.70;99.90;;;;;;5076693;28;20045;-80
2022/08/02 00:25:48;;;;;;;9.20;3.20;;;13.70;99.90;;;;;;5076561;28;20049;-80
2022/08/02 00:28:13;;;;;;;7.07;2.72;;;13.80;99.90;;;;;;5075312;28;20048;-80
2022/08/02 00:30:39;;;;;;;6.03;2.88;;;13.70;99.90;;;;;;5075616;28;20484;-80
2022/08/02 00:33:04;;;;;;;4.80;2.80;;;13.70;99.90;;;;;;5076244;28;20044;-80
2022/08/02 00:35:34;;;;;;;7.22;2.97;;;13.70;99.90;;;;;;5076805;28;20435;-82
2022/08/02 00:38:00;;;;;;;7.28;3.05;;;13.70;99.90;;;;;;5076273;28;20049;-83
2022/08/02 00:40:25;;;;;;;7.13;3.03;;;13.70;99.90;;;;;;5076577;28;20047;-80
2022/08/02 00:43:05;;;;;;;7.53;3.00;;;13.70;99.90;;;;;;5076265;28;20040;-81
2022/08/02 00:45:31;;;;;;;8.73;3.45;;;13.70;99.90;;;;;;5076289;28;20397;-79
2022/08/02 00:47:57;;;;;;;6.63;3.17;;;13.70;99.90;;;;;;5074977;28;20048;-80
2022/08/02 00:50:23;;;;;;;7.88;3.03;;;13.70;99.90;;;;;;5076112;28;20067;-82
2022/08/02 00:52:48;;;;;;;8.33;2.97;;;13.60;99.90;;;;;;5075990;28;20040;-82
2022/08/02 00:55:14;;;;;;;9.20;3.43;;;13.70;99.90;;;;;;5076004;28;20477;-82
2022/08/02 00:57:39;;;;;;;8.23;3.10;;;13.60;99.90;;;;;;5076174;28;20045;-81
2022/08/02 01:00:05;;;;;;;8.73;2.80;;;13.60;99.90;;;;;;5075072;28;20044;-81
2022/08/02 01:02:31;;;;;;;7.78;3.33;;;13.60;99.90;;;;;;5075884;28;20052;-81
2022/08/02 01:04:57;;;;;;;7.20;3.40;;;13.60;99.90;;;;;;5075985;28;20059;-79
2022/08/02 01:07:22;;;;;;;6.13;2.70;;;13.70;99.90;;;;;;5075810;28;20370;-81
2022/08/02 01:09:49;;;;;;;6.55;3.03;;;13.60;99.90;;;;;;5075902;28;20040;-80
2022/08/02 01:12:14;;;;;;;6.57;3.20;;;13.50;99.90;;;;;;5075320;28;20048;-80
2022/08/02 01:14:44;;;;;;;8.40;3.33;;;13.50;99.90;;;;;;5075443;28;20397;-83
2022/08/02 01:17:28;;;;;;;6.25;3.47;;;13.70;99.90;;;;;;5076064;28;20047;-82
2022/08/02 01:20:03;;;;;;;8.35;2.75;;;13.70;99.90;;;;;;5075586;28;20109;-80
2022/08/02 01:22:47;;;;;;;7.60;2.92;;;13.40;99.90;;;;;;5075525;28;20045;-83
2022/08/02 01:25:37;;;;;;;8.45;3.15;;;13.40;99.90;;;;;;5075427;28;20134;-81
2022/08/02 01:28:15;;;;;;;7.38;3.67;;;13.40;99.90;;;;;;5075390;28;20101;-81
2022/08/02 01:30:45;;;;;;;6.38;3.45;;;13.40;99.90;;;;;;5075339;28;20182;-81
2022/08/02 01:33:15;;;;;;;6.15;3.40;;;13.40;99.90;;;;;;5075188;28;20041;-83
2022/08/02 01:35:44;;;;;;;8.55;4.00;;;13.30;99.90;;;;;;5075215;28;20056;-81
2022/08/02 01:38:42;;;;;;;6.85;3.38;;;13.20;99.90;;;;;;5075652;28;20049;-82
2022/08/02 01:41:11;;;;;;;8.73;3.60;;;13.20;99.90;;;;;;5070795;28;20496;-82
2022/08/02 01:43:39;;;;;;;6.25;3.25;;;13.30;99.90;;;;;;5074809;28;20047;-80
2022/08/02 01:46:05;;;;;;;6.22;3.42;;;13.20;99.90;;;;;;5074924;28;20044;-81
2022/08/02 01:48:33;;;;;;;5.63;3.70;;;13.10;99.90;;;;;;5075042;28;20060;-80
2022/08/02 01:51:00;;;;;;;7.68;4.30;;;13.10;99.90;;;;;;5074899;28;20048;-82
2022/08/02 01:53:27;;;;;;;;;;;13.10;99.90;;;;;;5075168;28;20090;-83
2022/08/02 01:55:54;;;;;;;5.90;3.67;;;13.10;99.90;;;;;;5073654;28;19921;-82
2022/08/02 01:58:25;;;;;;;9.68;4.22;;;13.00;99.90;;;;;;5074652;28;20131;-79
2022/08/02 02:00:54;;;;;;;10.10;4.50;;;13.00;99.90;;;;;;5074705;28;20045;-81
2022/08/02 02:03:22;;;;;;;6.60;3.95;;;13.00;99.90;;;;;;5074619;28;20036;-79
2022/08/02 02:05:50;;;;;;;7.22;3.85;;;13.00;99.90;;;;;;5074463;28;20044;-80
2022/08/02 02:08:23;;;;;;;9.52;4.07;;;12.90;99.90;;;;;;5074598;28;20089;-80
2022/08/02 02:10:49;;;;;;;6.78;4.05;;;12.90;99.90;;;;;;5074724;28;20128;-80
2022/08/02 02:13:18;;;;;;;7.90;3.92;;;12.90;99.90;;;;;;5073261;28;20036;-80
2022/08/02 02:15:47;;;;;;;9.07;4.30;;;12.80;99.90;;;;;;5073194;28;20059;-81
2022/08/02 02:18:19;;;;;;;8.68;4.35;;;12.80;99.90;;;;;;5074416;28;20075;-82
2022/08/02 02:20:45;;;;;;;8.18;4.22;;;12.80;99.90;;;;;;5074151;28;20492;-82
2022/08/02 02:23:12;;;;;;;7.63;4.15;;;12.80;99.90;;;;;;5074218;28;20045;-81
2022/08/02 02:25:40;;;;;;;8.02;4.45;;;12.70;99.90;;;;;;5074240;28;20045;-81
2022/08/02 02:28:10;;;;;;;10.02;4.30;;;12.80;99.90;;;;;;5074139;28;20051;-80
2022/08/02 02:30:39;;;;;;;10.65;4.25;;;12.70;99.90;;;;;;5074154;28;20048;-80
2022/08/02 02:33:07;;;;;;;9.45;4.68;;;12.70;99.90;;;;;;5074596;28;20111;-81
2022/08/02 02:35:35;;;;;;;9.63;4.72;;;12.70;99.90;;;;;;5074069;28;20041;-81
2022/08/02 02:38:03;;;;;;;9.27;4.22;;;12.60;99.90;;;;;;5074008;28;20048;-80
2022/08/02 02:40:31;;;;;;;9.07;4.28;;;12.70;99.90;;;;;;5072817;28;20048;-80
2022/08/02 02:42:59;;;;;;;13.15;4.30;;;12.60;99.90;;;;;;5074491;28;20136;-81
2022/08/02 02:45:27;;;;;;;7.55;4.13;;;12.80;99.90;;;;;;5074004;28;20047;-81
2022/08/02 02:47:54;;;;;;;9.40;4.70;;;12.60;99.90;;;;;;5073978;28;20052;-80
2022/08/02 02:50:21;;;;;;;9.98;4.45;;;12.60;99.90;;;;;;5073963;28;20052;-82
2022/08/02 02:52:48;;;;;;;7.45;4.53;;;12.70;99.90;;;;;;5073858;28;20127;-77
2022/08/02 02:55:15;;;;;;;;;;;12.70;99.90;;;;;;5073949;28;20523;-79
2022/08/02 02:57:42;;;;;;;8.23;4.13;;;12.60;99.90;;;;;;5072826;28;20372;-81
2022/08/02 03:00:10;;;;;;;7.88;3.90;;;12.50;99.90;;;;;;5074225;28;20063;-78
2022/08/02 03:02:38;;;;;;;12.10;4.07;;;12.60;99.90;;;;;;5073704;28;20166;-78
2022/08/02 03:05:06;;;;;;;8.65;4.07;;;12.50;99.90;;;;;;5073779;28;20043;-79
2022/08/02 03:07:33;;;;;;;10.20;5.30;;;12.50;99.90;;;;;;5073712;28;20047;-79
2022/08/02 03:09:59;;;;;;;16.38;5.10;;;12.60;99.90;;;;;;5073574;28;20044;-78
2022/08/02 03:12:26;;;;;;;10.53;4.57;;;12.60;99.90;;;;;;5073605;28;20041;-78
2022/08/02 03:14:52;;;;;;;8.63;4.53;;;12.60;99.90;;;;;;5072823;28;20044;-80
2022/08/02 03:17:18;;;;;;;12.37;5.07;;;12.60;99.90;;;;;;5073643;28;20484;-80
2022/08/02 03:19:44;;;;;;;7.75;4.45;;;12.90;99.90;;;;;;5072525;28;20044;-82
2022/08/02 03:22:10;;;;;;;6.72;4.65;;;12.60;99.90;;;;;;5073581;28;20546;-80
2022/08/02 03:24:36;;;;;;;8.18;4.70;;;12.50;99.90;;;;;;5073523;28;20052;-79
2022/08/02 03:27:02;;;;;;;10.25;4.78;;;12.50;99.90;;;;;;5073529;28;20044;-79
2022/08/02 03:29:27;;;;;;;10.30;4.60;;;12.50;99.90;;;;;;5073588;28;20397;-82
2022/08/02 03:31:53;;;;;;;11.85;5.22;;;12.50;99.90;;;;;;5073525;28;20102;-79
2022/08/02 03:34:20;;;;;;;15.82;4.93;;;12.80;99.90;;;;;;5073531;28;20045;-79
2022/08/02 03:36:49;;;;;;;12.13;5.45;;;12.40;99.90;;;;;;5077333;28;20071;-78
2022/08/02 03:39:16;;;;;;;9.15;5.05;;;12.40;99.90;;;;;;5076406;28;20044;-76
2022/08/02 03:41:42;;;;;;;13.48;4.85;;;12.80;99.90;;;;;;5077462;28;20150;-78
2022/08/02 03:44:09;;;;;;;12.43;4.90;;;12.40;99.90;;;;;;5077385;28;20076;-80
2022/08/02 03:46:38;;;;;;;9.65;5.45;;;12.40;99.90;;;;;;5077179;28;20550;-79
2022/08/02 03:49:06;;;;;;;8.00;4.63;;;12.40;99.90;;;;;;5077175;28;20519;-78
2022/08/02 03:51:33;;;;;;;9.45;5.10;;;12.40;99.90;;;;;;5077194;28;20052;-81
2022/08/02 03:54:00;;;;;;;11.13;5.82;;;12.40;99.90;;;;;;5077137;28;20047;-78
2022/08/02 03:56:27;;;;;;;;;;;12.40;99.90;;;;;;5077521;28;20076;-80
2022/08/02 03:59:08;;;;;;;11.27;5.05;;;12.40;99.90;;;;;;5077024;28;19920;-82
2022/08/02 04:01:34;;;;;;;11.35;5.97;;;12.30;99.90;;;;;;5077100;28;20080;-80
2022/08/02 04:03:59;;;;;;;9.33;4.93;;;12.30;99.90;;;;;;5076982;28;20499;-79
2022/08/02 04:06:25;;;;;;;10.15;5.18;;;12.40;99.90;;;;;;5076948;28;20041;-79
2022/08/02 04:08:51;;;;;;;11.60;5.85;;;12.40;99.90;;;;;;5077386;28;20047;-78
2022/08/02 04:11:32;;;;;;;10.02;5.88;;;12.40;99.90;;;;;;5076668;28;20580;-80
2022/08/02 04:14:06;;;;;;;13.30;6.03;;;12.40;99.90;;;;;;5077215;28;20086;-81
2022/08/02 04:16:56;;;;;;;12.48;5.32;;;12.40;99.90;;;;;;5077006;28;20080;-78
2022/08/02 04:19:30;;;;;;;11.63;5.93;;;12.40;99.90;;;;;;5075665;28;20169;-80
2022/08/02 04:21:58;;;;;;;10.75;5.30;;;12.40;99.90;;;;;;5077036;28;20044;-77
2022/08/02 04:24:31;;;;;;;12.68;5.50;;;12.40;99.90;;;;;;5075287;28;20047;-77
2022/08/02 04:26:59;;;;;;;10.40;5.93;;;12.50;99.90;;;;;;5076480;28;20084;-79
2022/08/02 04:29:25;;;;;;;11.48;5.60;;;12.50;99.90;;;;;;5076390;28;20058;-79
2022/08/02 04:31:52;;;;;;;;;;;12.50;99.90;;;;;;5076772;28;20094;-79
2022/08/02 04:34:18;;;;;;;9.90;5.38;;;12.50;99.90;;;;;;5076838;28;19920;-78
2022/08/02 04:36:45;;;;;;;14.93;5.70;;;12.50;99.90;;;;;;5076346;28;20084;-79
2022/08/02 04:39:10;;;;;;;11.75;5.82;;;12.50;99.90;;;;;;5075246;28;20045;-80
2022/08/02 04:41:40;;;;;;;11.20;6.20;;;12.60;99.90;;;;;;5076359;28;20044;-78
2022/08/02 04:44:05;;;;;;;11.73;5.82;;;12.60;99.90;;;;;;5076146;28;20037;-81
2022/08/02 04:46:31;;;;;;;15.83;6.00;;;12.60;99.90;;;;;;5075576;28;20043;-80
2022/08/02 04:48:57;;;;;;;12.35;5.47;;;12.60;99.90;;;;;;5075816;28;20052;-79
2022/08/02 04:51:22;;;;;;;11.65;6.00;;;12.70;99.90;;;;;;5076163;28;20489;-81
2022/08/02 04:53:48;;;;;;;11.35;5.28;;;12.70;99.90;;;;;;5076219;28;20048;-79
2022/08/02 04:56:14;;;;;;;10.93;5.65;;;12.70;99.90;;;;;;5076001;28;20086;-82
2022/08/02 04:58:39;;;;;;;9.57;4.93;;;12.80;99.90;;;;;;5075920;28;20182;-80
2022/08/02 05:01:05;;;;;;;13.38;6.65;;;12.80;99.90;;;;;;5075947;28;20045;-80
2022/08/02 05:03:30;;;;;;;10.80;5.38;;;12.90;99.90;;;;;;5076306;28;20472;-79
2022/08/02 05:05:56;;;;;;;11.07;5.65;;;12.90;99.90;;;;;;5075899;28;20045;-80
2022/08/02 05:08:21;;;;;;;7.72;5.18;;;12.90;99.90;;;;;;5075754;28;20051;-81
2022/08/02 05:10:47;;;;;;;10.77;6.78;;;13.00;99.90;;;;;;5075743;28;20393;-81
2022/08/02 05:13:13;;;;;;;11.55;5.90;;;13.00;99.90;;;;;;5075608;28;20145;-80
2022/08/02 05:15:38;;;;;;;14.95;5.05;;;13.40;99.90;;;;;;5075285;28;20516;-82
2022/08/02 05:18:04;;;;;;;9.35;5.32;;;13.10;99.90;;;;;;5075713;28;20045;-84
2022/08/02 05:20:30;;;;;;;9.88;5.95;;;13.20;99.90;;;;;;5075515;28;20098;-79
2022/08/02 05:22:56;;;;;;;12.75;5.60;;;13.20;99.90;;;;;;5075776;28;20127;-83
2022/08/02 05:25:21;;;;;;;12.07;4.10;;;13.30;99.90;;;;;;5075468;28;20475;-83
2022/08/02 05:27:47;;;;;;;10.18;5.60;;;13.40;99.90;;;;;;5075306;28;20042;-78
2022/08/02 05:30:12;;;;;;;10.90;6.43;;;13.40;99.90;;;;;;5074695;28;20427;-82
2022/08/02 05:32:46;;;;;;;10.43;5.37;;;13.50;99.90;;;;;;5075212;28;20040;-78
2022/08/02 05:35:12;;;;;;;13.07;6.00;;;13.50;99.90;;;;;;5075792;28;20044;-82
2022/08/02 05:37:37;;;;;;;13.53;5.83;;;13.60;99.90;;;;;;5075475;28;20135;-81
2022/08/02 05:40:03;;;;;;;9.55;5.30;;;13.70;99.90;;;;;;5074137;28;20845;-82
2022/08/02 05:42:32;;;;;;;8.07;5.43;;;13.80;99.90;;;;;;5074943;28;20040;-80
2022/08/02 05:44:58;;;;;;;9.93;5.75;;;13.80;99.90;;;;;;5075104;28;20361;-81
2022/08/02 05:47:25;;;;;;;11.90;5.38;;;13.90;99.90;;;;;;5074829;28;20139;-79
2022/08/02 05:49:50;;;;;;;10.57;4.87;;;13.90;99.90;;;;;;5075042;28;20098;-79
2022/08/02 05:52:18;;;;;;;11.93;5.37;;;14.40;99.90;;;;;;5074596;28;20037;-80
2022/08/02 05:54:57;;;;;;;13.13;5.28;;;14.10;99.90;;;;;;5074645;28;20373;-78
2022/08/02 05:57:45;;;;;;;10.90;5.40;;;14.20;99.90;;;;;;5074587;28;20692;-84
2022/08/02 06:00:12;;;;;;;12.68;5.18;;;14.30;99.90;;;;;;5072817;28;20043;-77
2022/08/02 06:02:57;;;;;;;7.90;5.25;;;14.40;99.90;;;;;;5074885;28;20040;-79
2022/08/02 06:05:26;;;;;;;12.00;5.75;;;14.60;99.90;;;;;;5074673;28;20441;-80
2022/08/02 06:07:54;;;;;;;9.73;5.05;;;14.70;99.90;;;;;;5074919;28;20127;-78
2022/08/02 06:10:20;;;;;;;9.70;4.90;;;14.90;99.90;;;;;;5074203;28;20044;-79
2022/08/02 06:13:00;;;;;;;9.57;5.20;;;15.00;99.90;;;;;;5074238;28;20041;-82
2022/08/02 06:15:26;;;;;;;11.10;5.55;;;15.20;99.90;;;;;;5074497;28;20127;-80
2022/08/02 06:17:52;;;;;;;11.60;5.28;;;15.40;99.90;;;;;;5074342;28;20174;-80
2022/08/02 06:20:19;;;;;;;8.48;5.20;;;15.50;99.90;;;;;;5074283;28;20098;-80
2022/08/02 06:22:45;;;;;;;7.57;4.60;;;15.80;99.90;;;;;;5074354;28;20041;-81
2022/08/02 06:25:12;;;;;;;12.45;5.43;;;15.90;99.90;;;;;;5074153;28;20513;-79
2022/08/02 06:27:41;;;;;;;13.45;5.15;;;16.00;99.90;;;;;;5074317;28;20051;-81
2022/08/02 06:30:09;;;;;;;9.27;4.80;;;16.20;99.90;;;;;;5074125;28;20040;-80
2022/08/02 06:32:35;;;;;;;9.38;4.53;;;16.30;99.90;;;;;;5073669;28;20036;-82
2022/08/02 06:35:04;;;;;;;10.57;4.50;;;16.40;99.90;;;;;;5071531;28;20045;-84
2022/08/02 06:37:35;;;;;;;13.10;4.70;;;16.50;99.90;;;;;;5073709;28;20040;-84
2022/08/02 06:40:26;;;;;;;9.02;4.38;;;16.70;99.90;;;;;;5072883;28;20036;-84
2022/08/02 06:43:13;;;;;;;12.65;4.50;;;16.80;99.90;;;;;;5066742;28;20512;-86
2022/08/02 06:45:39;;;;;;;8.63;4.43;;;16.90;99.90;;;;;;5074188;28;20435;-81
2022/08/02 06:48:06;;;;;;;9.53;4.33;;;17.10;99.90;;;;;;5072419;28;20048;-84
2022/08/02 06:50:31;;;;;;;7.38;4.03;;;17.20;99.90;;;;;;5072665;28;20090;-83
2022/08/02 06:52:57;;;;;;;9.00;3.83;;;17.30;99.90;;;;;;5039515;28;20481;-85
2022/08/02 06:55:23;;;;;;;6.57;3.90;;;17.30;99.90;;;;;;5072834;28;20450;-82
2022/08/02 06:57:48;;;;;;;6.07;3.60;;;17.70;99.90;;;;;;5073356;28;20131;-84
2022/08/02 07:00:14;;;;;;;11.13;3.80;;;17.70;99.90;;;;;;5073697;28;20141;-82
2022/08/02 07:02:40;;;;;;;7.33;3.63;;;18.00;99.90;;;;;;5073615;28;20047;-88
2022/08/02 07:05:07;;;;;;;7.13;3.87;;;17.90;99.90;;;;;;5072746;28;20094;-83
2022/08/02 07:07:33;;;;;;;;;;;17.90;99.90;;;;;;5056560;28;20058;-85
2022/08/02 07:09:59;;;;;;;6.60;3.50;;;18.00;99.90;;;;;;5072398;28;20375;-85
2022/08/02 07:12:25;;;;;;;7.78;3.70;;;18.10;99.90;;;;;;5071857;28;20049;-83
2022/08/02 07:14:51;;;;;;;14.83;4.00;;;18.20;99.90;;;;;;5072510;28;20044;-85
2022/08/02 07:17:17;;;;;;;6.17;3.70;;;18.40;99.90;;;;;;5072496;28;20275;-82
2022/08/02 07:19:43;;;;;;;4.97;3.27;;;18.40;99.90;;;;;;5089352;28;20370;-84
2022/08/02 07:22:08;;;;;;;8.80;3.30;;;18.50;99.90;;;;;;5046908;28;20099;-82
2022/08/02 07:24:34;;;;;;;7.00;3.23;;;18.70;99.90;;;;;;5053535;28;20041;-84
2022/08/02 07:27:00;;;;;;;6.83;2.83;;;18.80;99.90;;;;;;5052817;28;20444;-82
2022/08/02 07:29:26;;;;;;;8.80;3.00;;;19.20;99.90;;;;;;5069029;28;20389;-81
2022/08/02 07:31:52;;;;;;;7.95;2.90;;;19.30;99.90;;;;;;5052680;28;20127;-86
2022/08/02 07:34:17;;;;;;;7.97;2.97;;;19.40;99.90;;;;;;5052274;28;20194;-80
2022/08/02 07:36:43;;;;;;;3.43;2.53;;;19.50;99.90;;;;;;5053374;28;20045;-78
2022/08/02 07:39:08;;;;;;;6.73;2.67;;;19.70;99.90;;;;;;5053391;28;20102;-82
2022/08/02 07:41:34;;;;;;;5.07;2.53;;;19.70;99.90;;;;;;5053295;28;20049;-78
2022/08/02 07:44:00;;;;;;;4.83;2.37;;;19.80;99.90;;;;;;5053139;28;20392;-79
2022/08/02 07:46:25;;;;;;;4.70;2.27;;;19.70;99.90;;;;;;5053273;28;20063;-80
2022/08/02 07:48:54;;;;;;;5.37;2.03;;;19.60;99.90;;;;;;5053539;28;20053;-76
2022/08/02 07:51:22;;;;;;;5.55;2.05;;;19.70;99.90;;;;;;5053216;28;20048;-76
2022/08/02 07:53:48;;;;;;;8.90;2.10;;;19.60;99.90;;;;;;5052773;28;20465;-77
2022/08/02 07:56:14;;;;;;;7.20;2.70;;;19.80;99.90;;;;;;5052974;28;20131;-77
2022/08/02 07:58:42;;;;;;;6.10;2.17;;;19.90;99.90;;;;;;5053586;28;20107;-78
2022/08/02 08:01:08;;;;;;;7.10;2.45;;;20.00;99.90;;;;;;5052772;28;20045;-82
2022/08/02 08:03:34;;;;;;;3.35;1.73;;;20.10;99.90;;;;;;5053062;28;20512;-82
2022/08/02 08:05:59;;;;;;;3.73;1.80;;;20.30;99.90;;;;;;5053006;28;20049;-81
2022/08/02 08:08:25;;;;;;;6.03;1.93;;;20.50;99.90;;;;;;5052994;28;20135;-83
2022/08/02 08:10:50;;;;;;;5.47;2.17;;;20.60;99.90;;;;;;5052950;28;20481;-78
2022/08/02 08:13:16;;;;;;;6.63;2.10;;;20.70;99.90;;;;;;5053173;28;20041;-78
2022/08/02 08:15:42;;;;;;;5.00;2.00;;;20.80;99.90;;;;;;5064825;28;20122;-79
2022/08/02 08:18:08;;;;;;;3.83;1.43;;;20.90;99.90;;;;;;5056133;28;20060;-77
2022/08/02 08:20:33;;;;;;;8.17;1.90;;;20.90;99.90;;;;;;5052391;28;20444;-78
2022/08/02 08:22:59;;;;;;;6.70;2.10;;;21.10;99.90;;;;;;5054728;28;20037;-77
2022/08/02 08:25:24;;;;;;;5.33;1.83;;;21.20;99.90;;;;;;5055365;28;20049;-80
2022/08/02 08:27:51;;;;;;;4.73;1.70;;;21.40;99.90;;;;;;5056221;28;20515;-80
2022/08/02 08:30:18;;;;;;;5.55;2.10;;;21.40;99.90;;;;;;5056166;28;20132;-79
2022/08/02 08:32:44;;;;;;;6.22;1.95;;;21.40;99.90;;;;;;5054932;28;20036;-80
2022/08/02 08:35:10;;;;;;;3.10;1.63;;;21.50;99.90;;;;;;5056231;28;20087;-82
2022/08/02 08:37:36;;;;;;;3.87;1.67;;;21.60;99.90;;;;;;5056155;28;20443;-79
2022/08/02 08:40:06;;;;;;;6.13;1.80;;;21.60;99.90;;;;;;5055890;28;20091;-80
2022/08/02 08:42:31;;;;;;;5.57;2.05;;;21.80;99.90;;;;;;5055691;28;20041;-80
2022/08/02 08:44:58;;;;;;;3.30;1.50;;;22.00;99.90;;;;;;5056066;28;20068;-82
2022/08/02 08:47:35;;;;;;;3.47;1.65;;;22.10;99.90;;;;;;5055636;28;20053;-79
2022/08/02 08:50:09;;;;;;;;;;;22.30;99.90;;;;;;5056121;28;20098;-83
2022/08/02 08:52:41;;;;;;;4.40;1.58;;;22.40;99.90;;;;;;5055769;28;19966;-81
2022/08/02 08:55:09;;;;;;;4.45;1.58;;;22.60;99.90;;;;;;5055707;28;20057;-81
2022/08/02 08:57:39;;;;;;;5.70;1.73;;;22.60;99.90;;;;;;5055599;28;20485;-82
2022/08/02 09:00:05;;;;;;;5.28;1.70;;;22.70;99.90;;;;;;5055842;28;20119;-82
2022/08/02 09:02:33;;;;;;;9.85;2.08;;;22.70;99.90;;;;;;5055684;28;20037;-84
2022/08/02 09:05:00;;;;;;;2.35;1.30;;;22.70;99.90;;;;;;5054683;28;20045;-82
2022/08/02 09:07:26;;;;;;;6.43;1.60;;;22.90;99.90;;;;;;5055614;28;20045;-82
2022/08/02 09:09:51;;;;;;;8.67;1.83;;;23.00;99.90;;;;;;5055419;28;20052;-80
2022/08/02 09:12:20;;;;;;;3.17;1.60;;;23.20;99.90;;;;;;5055426;28;20045;-81
2022/08/02 09:14:46;;;;;;;4.40;1.30;;;23.30;99.90;;;;;;5055487;28;20397;-81
2022/08/02 09:17:12;;;;;;;5.97;1.73;;;23.20;99.90;;;;;;5055503;28;20044;-82
2022/08/02 09:19:39;;;;;;;3.77;1.47;;;23.30;99.90;;;;;;5055228;28;20056;-82
2022/08/02 09:22:07;;;;;;;5.10;1.70;;;23.40;99.90;;;;;;5054232;28;20064;-82
2022/08/02 09:24:50;;;;;;;4.07;1.33;;;23.40;99.90;;;;;;5055218;28;20063;-81
2022/08/02 09:27:17;;;;;;;4.15;1.80;;;23.50;99.90;;;;;;5055288;28;20041;-77
2022/08/02 09:29:48;;;;;;;3.80;1.70;;;23.60;99.90;;;;;;5055272;28;20098;-77
2022/08/02 09:32:15;;;;;;;6.60;1.58;;;23.60;99.90;;;;;;5055050;28;20041;-78
2022/08/02 09:34:49;;;;;;;4.60;1.42;;;23.70;99.90;;;;;;5054759;28;20385;-78
2022/08/02 09:37:29;;;;;;;3.65;1.30;;;23.90;99.90;;;;;;5054917;28;20397;-77
2022/08/02 09:39:58;;;;;;;6.28;1.75;;;24.10;99.90;;;;;;5055062;28;20045;-77
2022/08/02 09:42:23;;;;;;;7.22;1.60;;;24.30;99.90;;;;;;5054951;28;20037;-78
2022/08/02 09:44:54;;;;;;;5.47;1.30;;;24.40;99.70;;;;;;5054745;28;20083;-77
2022/08/02 09:47:19;;;;;;;3.22;1.25;;;24.50;99.10;;;;;;5054559;28;20506;-79
2022/08/02 09:49:46;;;;;;;3.17;1.40;;;24.70;99.10;;;;;;5053777;28;20104;-79
2022/08/02 09:52:12;;;;;;;;;;;24.80;98.00;;;;;;5054944;28;20045;-79
2022/08/02 09:54:38;;;;;;;3.50;1.40;;;25.00;96.60;;;;;;5054759;28;20394;-83
2022/08/02 09:57:04;;;;;;;3.55;1.58;;;25.00;98.00;;;;;;5054418;28;20080;-79
2022/08/02 09:59:30;;;;;;;4.32;1.88;;;25.30;97.30;;;;;;5054754;28;20378;-78
2022/08/02 10:02:00;;;;;;;2.90;1.50;;;25.40;98.00;;;;;;5054409;28;20091;-77
2022/08/02 10:04:31;;;;;;;3.92;1.50;;;25.60;97.60;;;;;;5054494;28;20055;-76
2022/08/02 10:06:58;;;;;;;2.80;1.65;;;25.60;97.70;;;;;;5054178;28;20124;-77
2022/08/02 10:09:24;;;;;;;3.63;1.63;;;25.70;97.40;;;;;;5054441;28;20083;-77
2022/08/02 10:11:50;;;;;;;5.00;1.90;;;25.80;97.30;;;;;;5053423;28;20080;-79
2022/08/02 10:14:18;;;;;;;4.85;1.58;;;25.80;97.40;;;;;;5054011;28;20088;-78
2022/08/02 10:16:43;;;;;;;5.18;1.63;;;25.80;97.70;;;;;;5074454;28;20150;-80
2022/08/02 10:19:09;;;;;;;5.40;2.17;;;25.80;98.20;;;;;;5090341;28;20037;-78
2022/08/02 10:21:49;;;;;;;3.42;1.65;;;25.80;98.00;;;;;;5074272;28;20045;-78
2022/08/02 10:24:18;;;;;;;3.85;1.73;;;25.90;97.80;;;;;;5074500;28;20045;-78
2022/08/02 10:26:45;;;;;;;3.13;1.70;;;25.90;98.40;;;;;;5074213;28;20558;-75
2022/08/02 10:29:19;;;;;;;4.43;1.90;;;26.00;98.40;;;;;;5074161;28;20044;-76
2022/08/02 10:31:56;;;;;;;5.07;2.15;;;26.00;98.20;;;;;;5074654;28;20040;-75
2022/08/02 10:34:26;;;;;;;5.93;2.10;;;25.90;97.60;;;;;;5074495;28;20041;-76
2022/08/02 10:36:53;;;;;;;5.32;1.98;;;26.00;98.70;;;;;;5074316;28;20044;-78
2022/08/02 10:39:18;;;;;;;;;;;26.00;99.00;;;;;;5074457;28;20424;-77
2022/08/02 10:41:46;;;;;;;4.72;2.15;;;26.00;99.10;;;;;;5074064;28;19920;-76
2022/08/02 10:44:22;;;;;;;4.18;2.20;;;26.00;99.40;;;;;;5073733;28;20055;-77
2022/08/02 10:46:48;;;;;;;3.80;1.85;;;26.10;99.50;;;;;;5073768;28;20048;-77
2022/08/02 10:49:16;;;;;;;5.20;1.80;;;26.20;99.90;;;;;;5073996;28;20105;-77
2022/08/02 10:51:53;;;;;;;5.50;2.00;;;26.30;99.90;;;;;;5073785;28;20059;-86
2022/08/02 10:54:21;;;;;;;4.20;2.90;;;26.50;99.90;;;;;;5055891;28;20044;-82
2022/08/02 10:56:48;;;;;;;5.10;2.00;;;26.60;99.60;;;;;;5073844;28;20128;-78
2022/08/02 10:59:27;;;;;;;4.97;2.58;;;26.70;99.70;;;;;;5073649;28;20116;-83
2022/08/02 11:02:01;;;;;;;6.07;2.55;;;26.70;98.70;;;;;;5055988;28;20052;-80
2022/08/02 11:04:35;;;;;;;5.13;2.22;;;26.60;99.00;;;;;;5073231;28;20436;-82
2022/08/02 11:07:20;;;;;;;4.05;2.33;;;26.70;99.20;;;;;;5071615;28;20473;-82
2022/08/02 11:09:49;;;;;;;4.03;2.20;;;26.80;98.70;;;;;;5073759;28;20579;-82
2022/08/02 11:12:18;;;;;;;3.40;2.00;;;26.80;99.10;;;;;;5072672;28;20048;-80
2022/08/02 11:14:59;;;;;;;5.82;2.70;;;26.90;99.10;;;;;;5073727;28;20051;-82
2022/08/02 11:17:27;;;;;;;4.10;1.98;;;26.90;98.20;;;;;;5073782;28;20052;-80
2022/08/02 11:20:11;;;;;;;4.22;1.80;;;27.00;98.70;;;;;;5073610;28;20045;-81
2022/08/02 11:22:41;;;;;;;7.35;2.42;;;27.10;98.70;;;;;;5073576;28;20044;-83
2022/08/02 11:25:22;;;;;;;4.03;2.65;;;27.10;98.20;;;;;;5073234;28;20485;-83
2022/08/02 11:27:49;;;;;;;6.43;2.35;;;27.10;97.80;;;;;;5073614;28;20457;-81
2022/08/02 11:30:15;;;;;;;4.93;2.50;;;27.10;98.60;;;;;;5055643;28;20128;-83
2022/08/02 11:32:41;;;;;;;4.47;2.40;;;27.20;98.50;;;;;;5073760;28;20127;-83
2022/08/02 11:35:07;;;;;;;4.13;2.15;;;27.30;98.30;;;;;;5073503;28;20107;-82
2022/08/02 11:37:41;;;;;;;3.45;1.85;;;27.30;98.40;;;;;;5073424;28;20487;-83
2022/08/02 11:40:10;;;;;;;3.85;2.08;;;27.40;98.00;;;;;;5073422;28;20506;-82
2022/08/02 11:42:38;;;;;;;3.58;1.80;;;27.50;98.20;;;;;;5073699;28;20076;-82
2022/08/02 11:45:06;;;;;;;3.75;1.90;;;27.50;97.90;;;;;;5073289;28;20053;-81
2022/08/02 11:47:32;;;;;;;3.65;1.90;;;27.60;97.70;;;;;;5073218;28;20493;-82
2022/08/02 11:50:08;;;;;;;3.92;1.92;;;27.60;97.40;;;;;;5073298;28;20095;-81
2022/08/02 11:52:34;;;;;;;5.72;2.17;;;27.60;96.50;;;;;;5073226;28;20131;-80
2022/08/02 11:55:00;;;;;;;;;;;27.60;96.60;;;;;;5073661;28;20127;-82
2022/08/02 11:57:26;;;;;;;4.65;1.63;;;27.50;97.00;;;;;;5074681;28;19978;-80
2022/08/02 11:59:53;;;;;;;2.77;1.73;;;27.50;96.70;;;;;;5077147;28;20051;-83
2022/08/02 12:02:21;;;;;;;2.67;1.67;;;27.30;96.00;;;;;;5076711;28;20488;-80
2022/08/02 12:04:56;;;;;;;4.60;1.70;;;27.40;96.00;;;;;;5076971;28;20036;-83
2022/08/02 12:07:30;;;;;;;3.85;1.50;;;27.40;95.50;;;;;;5076220;28;20135;-82
2022/08/02 12:10:22;;;;;;;4.03;1.50;;;27.30;96.10;;;;;;5076908;28;20131;-82
2022/08/02 12:12:59;;;;;;;2.88;1.48;;;27.40;96.30;;;;;;5075764;28;20499;-81
2022/08/02 12:15:31;;;;;;;4.40;1.67;;;27.40;96.40;;;;;;5075936;28;20059;-79
2022/08/02 12:20:41;;;;;;;4.28;1.58;;;27.40;96.70;;;;;;5075461;28;20427;-81
2022/08/02 12:23:06;;;;;;;4.77;1.90;;;27.60;96.80;;;;;;5075706;28;20040;-82
2022/08/02 12:25:33;;;;;;;4.10;1.90;;;27.70;96.70;;;;;;5075716;28;20389;-82
2022/08/02 12:28:24;;;;;;;4.03;1.73;;;27.90;96.40;;;;;;5076472;28;20048;-81
2022/08/02 12:30:58;;;;;;;4.00;1.70;;;28.00;95.50;;;;;;5075816;28;20067;-80
2022/08/02 12:33:42;;;;;;;5.05;1.52;;;28.10;95.60;;;;;;5076654;28;20048;-82
2022/08/02 12:36:15;;;;;;;2.33;1.58;;;28.20;94.70;;;;;;5076362;28;20084;-81
2022/08/02 12:38:58;;;;;;;4.05;1.75;;;28.20;94.50;;;;;;5076341;28;20041;-82
2022/08/02 12:41:26;;;;;;;4.30;1.70;;;28.40;94.30;;;;;;5076396;28;20385;-81
2022/08/02 12:43:52;;;;;;;2.30;1.40;;;28.50;94.50;;;;;;5076294;28;20076;-82
2022/08/02 12:46:20;;;;;;;3.15;1.50;;;28.50;94.40;;;;;;5076254;28;20044;-82
2022/08/02 12:48:47;;;;;;;3.03;1.60;;;28.50;94.60;;;;;;5075665;28;20091;-81
2022/08/02 12:51:21;;;;;;;;;;;28.50;95.10;;;;;;5076493;28;20061;-81
2022/08/02 12:53:48;;;;;;;1.98;1.30;;;28.40;95.10;;;;;;5076034;28;19989;-82
2022/08/02 12:56:29;;;;;;;3.42;1.83;;;28.50;95.70;;;;;;5074921;28;20048;-82
2022/08/02 12:58:55;;;;;;;3.20;1.50;;;28.60;95.40;;;;;;5076039;28;20137;-83